MCBH Kaneohe Bay, HI

1:27 PM HST on February 23, 2017 (GMT -1000)
Kaneohe Bay Marine Corps Air Facility | | Change Station

Elev 16 ft 21.45 °N, 157.77 °W | Updated 1 hour ago

Mostly Cloudy
Mostly Cloudy
77 °F
Feels Like 77 °F
N
14
Wind Variable Wind from NE
Gusts 20 mph

Today
High -- | Low -- °F
--% Chance of Precip.
Yesterday
High -- | Low -- °F
Precip. -- in
Pressure 30.15 in
Visibility 7.0 miles
Clouds Few 4500 ft
Dew Point 59 °F
Humidity 54%
Rainfall 0.00 in
Snow Depth Not available.
6:55 AM 6:33 PM
Waning Crescent, 8% visible
METAR PHNG 232157Z 04012G17KT 7SM FEW045 26/16 A3017 RMK SLP210 T02500150
Pressure 30.15 in
Visibility 7.0 miles
Clouds Few 4500 ft
Dew Point 59 °F
Humidity 54%
Rainfall 0.00 in
Snow Depth Not available.
6:55 AM 6:33 PM
Waning Crescent, 8% visible
METAR PHNG 232157Z 04012G17KT 7SM FEW045 26/16 A3017 RMK SLP210 T02500150

Get Your Daily Forecast Email!

Thanks for signing up!

Be on the lookout for a verification email in your inbox.

You'll start receiving the daily forecast at 8 AM.

×

10-Day Weather Forecast

Almanac

Astronomy

Feb. 23, 2017 Rise Set
Actual Time
Civil Twilight
Nautical Twilight
Astronomical Twilight
Moon
Length of Visible Light
Length of Day
Tomorrow will be .
, % of the Moon is Illuminated

Today's Extremes

State Highs State Lows

Community

WunderPhotos

Upload Photos

1,962,540 photos uploaded!

WunderBlog® & News

Nearby

Air Quality

  Air Quality AQ Index Pollutant
Not available.

Snow Depth

Station Depth Elevation

Earthquake Activity

City Distance Mag. Time & Date
Minimum magnitude displayed is 2.5.

Coastal Water Temperatures

Place Temperature

Stations

Nearby Weather Stations

Station Location Temp. Windchill Dew Point Humidity Wind Precip. Elev Updated Type
                   

Watches & Warnings

There are currently no watches in effect.